Time;durP1;ratioP1;P1;durP2;ratioP2;P2;SDS_P1;SDS_P2;PMS_P1;PMS_P2;Temp;Humidity;BMP_temperature;BMP_pressure;BME280_temperature;BME280_humidity;BME280_pressure;Samples;Min_cycle;Max_cycle;Signal;HPM_P1;HPM_P2
2022/03/22 00:02:09;;;;;;;51.28;18.63;;;;;;;;;;5053732;28;20036;-77
2022/03/22 00:04:34;;;;;;;49.58;17.75;;;;;;;;;;5053460;28;20028;-77
2022/03/22 00:07:00;;;;;;;47.72;18.25;;;;;;;;;;5054409;28;20092;-77
2022/03/22 00:09:25;;;;;;;40.88;17.08;;;;;;;;;;5036792;28;20445;-78
2022/03/22 00:11:51;;;;;;;52.08;18.80;;;;;;;;;;5036669;28;20029;-77
2022/03/22 00:14:17;;;;;;;50.50;18.33;;;;;;;;;;5040686;28;20037;-77
2022/03/22 00:16:43;;;;;;;50.53;18.23;;;;;;;;;;5058136;28;20453;-77
2022/03/22 00:19:08;;;;;;;47.53;17.85;;;;;;;;;;5036607;28;20055;-75
2022/03/22 00:21:35;;;;;;;50.28;18.20;;;;;;;;;;5054461;28;20029;-76
2022/03/22 00:24:01;;;;;;;46.20;18.27;;;;;;;;;;5054187;28;20033;-77
2022/03/22 00:26:27;;;;;;;51.67;18.88;;;;;;;;;;5054147;28;20033;-77
2022/03/22 00:28:53;;;;;;;49.13;19.27;;;;;;;;;;5053815;28;20039;-78
2022/03/22 00:31:18;;;;;;;52.75;21.35;;;;;;;;;;5054074;28;20450;-77
2022/03/22 00:33:44;;;;;;;62.00;20.63;;;;;;;;;;5054711;28;20036;-76
2022/03/22 00:36:10;;;;;;;50.22;18.63;;;;;;;;;;5061536;28;20021;-77
2022/03/22 00:38:36;;;;;;;46.30;18.60;;;;;;;;;;5036463;28;20040;-77
2022/03/22 00:41:01;;;;;;;45.30;17.58;;;;;;;;;;5053946;28;20033;-77
2022/03/22 00:43:27;;;;;;;48.33;18.30;;;;;;;;;;5036493;28;20037;-77
2022/03/22 00:45:52;;;;;;;44.65;17.48;;;;;;;;;;5052962;28;20052;-77
2022/03/22 00:48:18;;;;;;;48.97;17.65;;;;;;;;;;5036626;28;20079;-77
2022/03/22 00:50:46;;;;;;;48.80;17.27;;;;;;;;;;5036758;28;20370;-76
2022/03/22 00:53:17;;;;;;;44.20;17.25;;;;;;;;;;5036235;28;20025;-77
2022/03/22 00:55:43;;;;;;;44.70;16.52;;;;;;;;;;5036624;28;20378;-77
2022/03/22 00:58:09;;;;;;;42.60;17.23;;;;;;;;;;5045656;28;20052;-77
2022/03/22 01:00:34;;;;;;;37.60;14.75;;;;;;;;;;5053647;28;20054;-76
2022/03/22 01:03:01;;;;;;;34.45;14.52;;;;;;;;;;5054054;28;20062;-77
2022/03/22 01:05:27;;;;;;;44.05;16.88;;;;;;;;;;5036085;28;20036;-76
2022/03/22 01:07:54;;;;;;;36.75;14.18;;;;;;;;;;5040116;28;20041;-77
2022/03/22 01:10:21;;;;;;;42.63;15.10;;;;;;;;;;5035847;28;20024;-77
2022/03/22 01:12:47;;;;;;;44.90;15.30;;;;;;;;;;5052760;28;20179;-77
2022/03/22 01:15:16;;;;;;;38.67;15.80;;;;;;;;;;5036009;28;20112;-77
2022/03/22 01:17:42;;;;;;;39.55;15.85;;;;;;;;;;5057336;28;20047;-77
2022/03/22 01:20:11;;;;;;;38.28;14.70;;;;;;;;;;5039806;28;20052;-77
2022/03/22 01:22:40;;;;;;;44.38;16.35;;;;;;;;;;5052635;28;20029;-77
2022/03/22 01:25:13;;;;;;;37.55;15.68;;;;;;;;;;5052464;28;20059;-77
2022/03/22 01:27:39;;;;;;;35.97;14.93;;;;;;;;;;5053030;28;20120;-77
2022/03/22 01:30:05;;;;;;;36.13;14.73;;;;;;;;;;5053020;28;20056;-77
2022/03/22 01:32:31;;;;;;;37.95;14.27;;;;;;;;;;5053846;28;20029;-76
2022/03/22 01:34:57;;;;;;;38.80;15.57;;;;;;;;;;5035928;28;20025;-77
2022/03/22 01:37:22;;;;;;;37.35;14.85;;;;;;;;;;5054091;28;20041;-77
2022/03/22 01:39:48;;;;;;;42.20;16.08;;;;;;;;;;5062892;28;20032;-78
2022/03/22 01:42:13;;;;;;;38.20;14.82;;;;;;;;;;5057230;28;20521;-76
2022/03/22 01:44:38;;;;;;;34.92;14.25;;;;;;;;;;5039517;28;20029;-76
2022/03/22 01:47:04;;;;;;;41.75;15.70;;;;;;;;;;5056242;28;20104;-77
2022/03/22 01:49:30;;;;;;;34.40;14.45;;;;;;;;;;5039297;28;20025;-76
2022/03/22 01:51:56;;;;;;;36.25;13.40;;;;;;;;;;5039351;28;20028;-77
2022/03/22 01:54:21;;;;;;;41.22;14.43;;;;;;;;;;5055795;28;20028;-77
2022/03/22 01:56:47;;;;;;;38.72;15.20;;;;;;;;;;5055687;28;20036;-77
2022/03/22 01:59:12;;;;;;;39.58;15.05;;;;;;;;;;5057963;28;20021;-77
2022/03/22 02:07:06;;;;;;;39.22;15.65;;;;;;;;;;5041508;28;20036;-78
2022/03/22 02:09:31;;;;;;;35.50;14.80;;;;;;;;;;5022168;28;20029;-77
2022/03/22 02:11:57;;;;;;;37.22;14.55;;;;;;;;;;5056645;28;20362;-77
2022/03/22 02:14:22;;;;;;;41.45;15.30;;;;;;;;;;5022528;28;20025;-78
2022/03/22 02:16:48;;;;;;;40.55;15.85;;;;;;;;;;5038579;28;20107;-76
2022/03/22 02:19:16;;;;;;;37.13;16.23;;;;;;;;;;5046898;28;20041;-77
2022/03/22 02:21:42;;;;;;;41.83;15.90;;;;;;;;;;5056432;28;20053;-77
2022/03/22 02:24:08;;;;;;;35.65;15.23;;;;;;;;;;5038438;28;20435;-77
2022/03/22 02:26:34;;;;;;;42.58;15.95;;;;;;;;;;5056395;28;20461;-77
2022/03/22 02:28:59;;;;;;;38.65;15.23;;;;;;;;;;5038732;28;20434;-77
2022/03/22 02:31:26;;;;;;;40.88;14.80;;;;;;;;;;5038615;28;20021;-77
2022/03/22 02:33:52;;;;;;;37.33;14.63;;;;;;;;;;5056335;28;20666;-76
2022/03/22 02:36:17;;;;;;;38.75;15.05;;;;;;;;;;5038447;28;20359;-77
2022/03/22 02:38:43;;;;;;;41.83;15.30;;;;;;;;;;5022020;28;20028;-78
2022/03/22 02:41:15;;;;;;;46.00;16.00;;;;;;;;;;5046261;28;20083;-76
2022/03/22 02:43:40;;;;;;;40.05;15.30;;;;;;;;;;5022258;28;20021;-77
2022/03/22 02:46:06;;;;;;;44.05;15.90;;;;;;;;;;5038331;28;20442;-77
2022/03/22 02:48:34;;;;;;;41.55;15.52;;;;;;;;;;5054776;28;20020;-77
2022/03/22 02:51:00;;;;;;;38.17;14.70;;;;;;;;;;5039122;28;20033;-77
2022/03/22 02:53:25;;;;;;;39.10;15.77;;;;;;;;;;5037973;28;20446;-77
2022/03/22 02:55:50;;;;;;;39.58;15.68;;;;;;;;;;5055802;28;20035;-77
2022/03/22 02:58:16;;;;;;;33.88;15.02;;;;;;;;;;5038229;28;20044;-77
2022/03/22 03:00:41;;;;;;;47.45;16.83;;;;;;;;;;5062206;28;20039;-76
2022/03/22 03:03:07;;;;;;;70.70;21.85;;;;;;;;;;5059164;28;20033;-77
2022/03/22 03:05:33;;;;;;;116.88;34.20;;;;;;;;;;5037968;28;20115;-76
2022/03/22 03:07:59;;;;;;;148.65;41.25;;;;;;;;;;5055250;28;20053;-77
2022/03/22 03:10:24;;;;;;;211.95;54.10;;;;;;;;;;5055524;28;20087;-76
2022/03/22 03:13:03;;;;;;;317.80;82.65;;;;;;;;;;5055897;28;20028;-77
2022/03/22 03:15:29;;;;;;;513.88;128.82;;;;;;;;;;5055399;28;20405;-77
2022/03/22 03:17:54;;;;;;;515.75;128.65;;;;;;;;;;5055816;28;20025;-77
2022/03/22 03:20:20;;;;;;;400.70;102.35;;;;;;;;;;5037831;28;20029;-77
2022/03/22 03:22:45;;;;;;;332.83;86.82;;;;;;;;;;5045179;28;20394;-77
2022/03/22 03:25:11;;;;;;;282.23;77.35;;;;;;;;;;5055665;28;20029;-78
2022/03/22 03:27:36;;;;;;;214.05;56.58;;;;;;;;;;5055229;28;20119;-76
2022/03/22 03:30:06;;;;;;;172.35;47.30;;;;;;;;;;5021333;28;20036;-77
2022/03/22 03:32:32;;;;;;;120.03;37.08;;;;;;;;;;5021104;28;20361;-76
2022/03/22 03:34:58;;;;;;;85.68;27.38;;;;;;;;;;5037349;28;20111;-77
2022/03/22 03:37:24;;;;;;;76.18;25.67;;;;;;;;;;5020441;28;20351;-77
2022/03/22 03:39:50;;;;;;;71.80;23.73;;;;;;;;;;5037416;28;20036;-77
2022/03/22 03:42:16;;;;;;;75.82;27.17;;;;;;;;;;5038898;28;20062;-77
2022/03/22 03:47:25;;;;;;;61.72;22.92;;;;;;;;;;5054807;28;20457;-76
2022/03/22 03:49:53;;;;;;;62.30;23.65;;;;;;;;;;5054506;28;20029;-77
2022/03/22 03:52:23;;;;;;;53.60;21.40;;;;;;;;;;5020843;28;20029;-77
2022/03/22 03:54:49;;;;;;;53.15;21.27;;;;;;;;;;5020771;28;20033;-76
2022/03/22 03:57:15;;;;;;;64.80;25.23;;;;;;;;;;5036933;28;20041;-77
2022/03/22 03:59:40;;;;;;;84.05;31.83;;;;;;;;;;5054365;28;20035;-77
2022/03/22 04:02:06;;;;;;;82.50;30.73;;;;;;;;;;5037096;28;20508;-77
2022/03/22 04:04:32;;;;;;;70.05;27.73;;;;;;;;;;5043119;28;20048;-77
2022/03/22 04:06:57;;;;;;;68.20;27.02;;;;;;;;;;5036892;28;20032;-76
2022/03/22 04:09:23;;;;;;;72.82;26.35;;;;;;;;;;5053049;28;20048;-77
2022/03/22 04:11:48;;;;;;;75.65;29.75;;;;;;;;;;5053900;28;20029;-76
2022/03/22 04:14:14;;;;;;;91.35;33.67;;;;;;;;;;5054721;28;20132;-77
2022/03/22 04:16:40;;;;;;;76.10;30.38;;;;;;;;;;5036677;28;20029;-76
2022/03/22 04:19:08;;;;;;;72.57;29.95;;;;;;;;;;5052931;28;20039;-77
2022/03/22 04:21:38;;;;;;;70.38;28.17;;;;;;;;;;5053387;28;20040;-77
2022/03/22 04:24:09;;;;;;;70.18;26.00;;;;;;;;;;5053329;28;20478;-78
2022/03/22 04:26:35;;;;;;;66.65;25.10;;;;;;;;;;5062409;28;20090;-76
2022/03/22 04:34:29;;;;;;;52.45;21.90;;;;;;;;;;5053829;28;20036;-77
2022/03/22 04:36:57;;;;;;;54.90;23.05;;;;;;;;;;5053998;28;20029;-77
2022/03/22 04:39:24;;;;;;;50.80;20.50;;;;;;;;;;5054083;28;20028;-77
2022/03/22 04:41:50;;;;;;;54.28;22.48;;;;;;;;;;5054053;28;20071;-77
2022/03/22 04:44:16;;;;;;;49.35;21.52;;;;;;;;;;5053956;28;20025;-77
2022/03/22 04:46:42;;;;;;;50.70;21.88;;;;;;;;;;5044465;28;20067;-77
2022/03/22 04:49:08;;;;;;;55.85;21.98;;;;;;;;;;5054801;28;20033;-77
2022/03/22 04:57:02;;;;;;;66.30;23.83;;;;;;;;;;5053887;28;20094;-77
2022/03/22 04:59:28;;;;;;;61.78;24.35;;;;;;;;;;5053065;28;20417;-77
2022/03/22 05:01:53;;;;;;;69.00;26.98;;;;;;;;;;5053779;28;20033;-77
2022/03/22 05:04:19;;;;;;;91.05;28.10;;;;;;;;;;5036377;28;20033;-77
2022/03/22 05:06:45;;;;;;;74.97;28.63;;;;;;;;;;5058096;28;20013;-77
2022/03/22 05:09:11;;;;;;;73.68;30.08;;;;;;;;;;5060576;28;20091;-77
2022/03/22 05:11:36;;;;;;;72.65;30.17;;;;;;;;;;5054153;28;20057;-77
2022/03/22 05:14:02;;;;;;;74.22;30.98;;;;;;;;;;5039885;28;20033;-77
2022/03/22 05:16:29;;;;;;;75.03;28.77;;;;;;;;;;5057676;28;20036;-77
2022/03/22 05:18:55;;;;;;;72.07;29.13;;;;;;;;;;5057464;28;20082;-78
2022/03/22 05:21:21;;;;;;;75.72;30.17;;;;;;;;;;5057717;28;20021;-78
2022/03/22 05:23:46;;;;;;;66.88;28.70;;;;;;;;;;5057456;28;20032;-78
2022/03/22 05:26:12;;;;;;;65.90;29.10;;;;;;;;;;5057459;28;20031;-80
2022/03/22 05:28:38;;;;;;;83.63;30.15;;;;;;;;;;5060662;28;20025;-77
2022/03/22 05:31:05;;;;;;;72.10;28.02;;;;;;;;;;5057383;28;20107;-75
2022/03/22 05:33:30;;;;;;;73.60;28.77;;;;;;;;;;5057016;28;20028;-75
2022/03/22 05:35:56;;;;;;;68.88;28.67;;;;;;;;;;5039114;28;20447;-75
2022/03/22 05:38:25;;;;;;;70.07;27.35;;;;;;;;;;5019270;28;20029;-75
2022/03/22 05:40:51;;;;;;;85.13;30.00;;;;;;;;;;5046965;28;20071;-75
2022/03/22 05:43:16;;;;;;;74.63;29.92;;;;;;;;;;5076975;28;20033;-76
2022/03/22 05:45:46;;;;;;;95.85;37.15;;;;;;;;;;5074940;28;20021;-76
2022/03/22 05:48:12;;;;;;;82.05;32.95;;;;;;;;;;5057292;28;20055;-76
2022/03/22 05:50:37;;;;;;;62.22;29.75;;;;;;;;;;5042852;28;20551;-74
2022/03/22 05:53:03;;;;;;;74.70;29.27;;;;;;;;;;5043084;28;20037;-75
2022/03/22 05:55:29;;;;;;;66.60;25.75;;;;;;;;;;5043359;28;20126;-74
2022/03/22 05:57:54;;;;;;;62.72;23.52;;;;;;;;;;5014248;28;20080;-74
2022/03/22 06:00:20;;;;;;;68.35;24.80;;;;;;;;;;5033439;28;20037;-76
2022/03/22 06:02:45;;;;;;;71.50;28.40;;;;;;;;;;5039569;28;20037;-73
2022/03/22 06:05:11;;;;;;;69.65;27.17;;;;;;;;;;5044638;28;20426;-74
2022/03/22 06:07:37;;;;;;;80.82;30.48;;;;;;;;;;5028524;28;20501;-73
2022/03/22 06:10:04;;;;;;;60.88;24.90;;;;;;;;;;5065351;28;20040;-74
2022/03/22 06:12:51;;;;;;;51.00;23.08;;;;;;;;;;5044222;28;20032;-73
2022/03/22 06:15:24;;;;;;;50.10;21.30;;;;;;;;;;5060256;28;20067;-74
2022/03/22 06:17:51;;;;;;;66.22;23.80;;;;;;;;;;5057582;28;20517;-75
2022/03/22 06:20:17;;;;;;;59.55;26.27;;;;;;;;;;5044242;28;20021;-74
2022/03/22 06:22:45;;;;;;;66.57;29.27;;;;;;;;;;5047080;28;20029;-74
2022/03/22 06:25:11;;;;;;;99.60;38.00;;;;;;;;;;5054246;28;20036;-75
2022/03/22 06:27:36;;;;;;;108.65;42.47;;;;;;;;;;5046312;28;20036;-73
2022/03/22 06:30:04;;;;;;;114.28;42.53;;;;;;;;;;5069104;28;20033;-75
2022/03/22 06:32:29;;;;;;;119.15;45.03;;;;;;;;;;5060510;28;20116;-73
2022/03/22 06:34:55;;;;;;;122.57;50.05;;;;;;;;;;5040511;28;20174;-75
2022/03/22 06:37:21;;;;;;;135.05;54.17;;;;;;;;;;5064167;28;20123;-75
2022/03/22 06:39:48;;;;;;;154.75;60.28;;;;;;;;;;5053888;28;20028;-76
2022/03/22 06:42:14;;;;;;;168.30;67.10;;;;;;;;;;5048973;28;20374;-75
2022/03/22 06:44:44;;;;;;;156.95;61.83;;;;;;;;;;5051846;28;20090;-73
2022/03/22 06:47:10;;;;;;;110.93;46.70;;;;;;;;;;5043882;28;20066;-73
2022/03/22 06:49:35;;;;;;;107.80;46.40;;;;;;;;;;5064461;28;20040;-76
2022/03/22 06:52:01;;;;;;;109.85;48.72;;;;;;;;;;5055845;28;20041;-73
2022/03/22 06:54:27;;;;;;;133.93;57.13;;;;;;;;;;5063786;28;20055;-75
2022/03/22 06:57:03;;;;;;;106.38;49.17;;;;;;;;;;5047495;28;20040;-78
2022/03/22 06:59:29;;;;;;;107.40;47.40;;;;;;;;;;5055531;28;20029;-78
2022/03/22 07:01:55;;;;;;;91.57;45.90;;;;;;;;;;5042683;28;20047;-80
2022/03/22 07:04:39;;;;;;;98.03;47.55;;;;;;;;;;5046222;28;20035;-82
2022/03/22 07:07:06;;;;;;;123.55;51.35;;;;;;;;;;5059787;28;20043;-80
2022/03/22 07:09:32;;;;;;;124.05;48.38;;;;;;;;;;5066483;28;20067;-78
2022/03/22 07:11:58;;;;;;;95.45;45.50;;;;;;;;;;5057239;28;20024;-76
2022/03/22 07:14:25;;;;;;;100.43;45.28;;;;;;;;;;5056193;28;20063;-75
2022/03/22 07:16:50;;;;;;;108.18;47.50;;;;;;;;;;5064440;28;20040;-75
2022/03/22 07:19:20;;;;;;;100.35;45.80;;;;;;;;;;5055390;28;20386;-76
2022/03/22 07:21:46;;;;;;;91.75;44.95;;;;;;;;;;5042478;28;20124;-76
2022/03/22 07:24:12;;;;;;;101.75;48.55;;;;;;;;;;5060210;28;20140;-74
2022/03/22 07:26:38;;;;;;;79.90;41.88;;;;;;;;;;5064149;28;20238;-76
2022/03/22 07:29:05;;;;;;;83.35;41.55;;;;;;;;;;5059351;28;20025;-77
2022/03/22 07:31:31;;;;;;;87.82;43.42;;;;;;;;;;5047992;28;20175;-79
2022/03/22 07:33:57;;;;;;;91.18;43.13;;;;;;;;;;5057819;28;20025;-80
2022/03/22 07:36:23;;;;;;;85.47;42.17;;;;;;;;;;5060257;28;20032;-79
2022/03/22 07:38:49;;;;;;;81.15;42.15;;;;;;;;;;5065296;28;20028;-84
2022/03/22 07:41:19;;;;;;;92.00;49.30;;;;;;;;;;5068083;28;20464;-83
2022/03/22 07:43:44;;;;;;;;;;;;;;;;;;5066941;28;20356;-85
2022/03/22 07:46:13;;;;;;;85.47;42.25;;;;;;;;;;5062884;28;20414;-85
2022/03/22 07:48:42;;;;;;;94.40;46.00;;;;;;;;;;5047571;28;20047;-84
2022/03/22 07:53:55;;;;;;;98.22;51.45;;;;;;;;;;5044043;28;20051;-79
2022/03/22 07:56:20;;;;;;;102.00;48.65;;;;;;;;;;5053713;28;20033;-78
2022/03/22 07:58:46;;;;;;;103.18;49.40;;;;;;;;;;5036089;28;20047;-79
2022/03/22 08:01:14;;;;;;;94.78;48.47;;;;;;;;;;5062949;28;20068;-82
2022/03/22 08:06:33;;;;;;;95.40;49.08;;;;;;;;;;5076650;22;20056;-79
2022/03/22 08:08:59;;;;;;;96.28;49.13;;;;;;;;;;5070589;28;20037;-79
2022/03/22 08:11:24;;;;;;;100.80;52.22;;;;;;;;;;5068264;28;20086;-79
2022/03/22 08:13:50;;;;;;;102.93;51.20;;;;;;;;;;5071316;28;20076;-80
2022/03/22 08:16:15;;;;;;;97.60;48.58;;;;;;;;;;5067683;28;20028;-76
2022/03/22 08:18:41;;;;;;;89.72;47.75;;;;;;;;;;5058825;28;20423;-76
2022/03/22 08:21:06;;;;;;;95.90;48.92;;;;;;;;;;5046323;28;20081;-76
2022/03/22 08:23:39;;;;;;;103.15;49.72;;;;;;;;;;5060982;28;20037;-77
2022/03/22 08:26:04;;;;;;;94.38;49.78;;;;;;;;;;5061255;28;20071;-78
2022/03/22 08:28:33;;;;;;;91.32;49.70;;;;;;;;;;5061515;28;20127;-77
2022/03/22 08:31:02;;;;;;;93.70;50.13;;;;;;;;;;5046547;28;20121;-77
2022/03/22 08:33:28;;;;;;;101.40;51.85;;;;;;;;;;5063054;28;20048;-77
2022/03/22 08:35:54;;;;;;;95.95;47.47;;;;;;;;;;5025516;28;20086;-78
2022/03/22 08:38:24;;;;;;;92.07;47.80;;;;;;;;;;5062702;28;20036;-78
2022/03/22 08:40:55;;;;;;;99.97;51.60;;;;;;;;;;5047025;28;20044;-78
2022/03/22 08:43:21;;;;;;;95.82;49.95;;;;;;;;;;5042214;28;20476;-78
2022/03/22 08:45:46;;;;;;;86.03;47.08;;;;;;;;;;5060560;28;20037;-78
2022/03/22 08:48:12;;;;;;;97.47;48.17;;;;;;;;;;5024621;28;20121;-77
2022/03/22 08:50:42;;;;;;;88.25;45.75;;;;;;;;;;5044532;28;20036;-77
2022/03/22 08:53:08;;;;;;;96.00;46.22;;;;;;;;;;5068892;28;20029;-76
2022/03/22 08:55:34;;;;;;;86.43;44.85;;;;;;;;;;5035986;28;20151;-79
2022/03/22 08:58:05;;;;;;;83.78;43.70;;;;;;;;;;5053433;28;20127;-78
2022/03/22 09:00:31;;;;;;;92.93;47.45;;;;;;;;;;5051951;28;20037;-80
2022/03/22 09:02:57;;;;;;;86.68;43.80;;;;;;;;;;5041373;28;20028;-76
2022/03/22 09:08:06;;;;;;;69.05;37.80;;;;;;;;;;5067220;28;20405;-77
2022/03/22 09:10:32;;;;;;;66.03;31.98;;;;;;;;;;5065532;28;20029;-77
2022/03/22 09:12:58;;;;;;;71.07;33.20;;;;;;;;;;5061720;28;20129;-78
2022/03/22 09:15:36;;;;;;;67.15;32.53;;;;;;;;;;5070121;28;20024;-77
2022/03/22 09:18:02;;;;;;;56.78;28.98;;;;;;;;;;5055495;28;20036;-80
2022/03/22 09:20:32;;;;;;;47.08;27.02;;;;;;;;;;5053701;28;20035;-76
2022/03/22 09:22:59;;;;;;;45.47;24.98;;;;;;;;;;5056210;28;20039;-75
2022/03/22 09:25:24;;;;;;;54.30;25.70;;;;;;;;;;5080746;28;20103;-77
2022/03/22 09:27:50;;;;;;;45.80;21.80;;;;;;;;;;5072647;28;20123;-77
2022/03/22 09:30:18;;;;;;;45.42;22.35;;;;;;;;;;5071926;28;20089;-78
2022/03/22 09:32:44;;;;;;;41.33;20.05;;;;;;;;;;5056132;28;20075;-77
2022/03/22 09:35:10;;;;;;;37.97;19.77;;;;;;;;;;5054737;28;20063;-79
2022/03/22 09:37:43;;;;;;;41.15;21.23;;;;;;;;;;5070601;28;20044;-78
2022/03/22 09:40:09;;;;;;;40.72;19.85;;;;;;;;;;5074076;28;20033;-77
2022/03/22 09:42:38;;;;;;;38.40;19.52;;;;;;;;;;5072866;28;20446;-78
2022/03/22 09:45:09;;;;;;;41.67;20.17;;;;;;;;;;5070642;28;20078;-78
2022/03/22 09:47:38;;;;;;;42.10;20.98;;;;;;;;;;5052485;28;20047;-75
2022/03/22 09:50:06;;;;;;;40.63;19.70;;;;;;;;;;5070137;28;20399;-77
2022/03/22 09:52:31;;;;;;;53.97;20.75;;;;;;;;;;5067219;28;20025;-80
2022/03/22 09:54:57;;;;;;;42.00;15.80;;;;;;;;;;5067522;28;20029;-76
2022/03/22 09:57:22;;;;;;;38.35;16.17;;;;;;;;;;5067744;28;20140;-78
2022/03/22 09:59:48;;;;;;;31.55;14.85;;;;;;;;;;5068252;28;20029;-78
2022/03/22 10:02:13;;;;;;;31.20;14.95;;;;;;;;;;5063012;28;20036;-76
2022/03/22 10:04:41;;;;;;;32.58;15.02;;;;;;;;;;5061638;28;20036;-75
2022/03/22 10:07:07;;;;;;;29.42;14.32;;;;;;;;;;5073045;28;20037;-74
2022/03/22 10:09:39;;;;;;;28.30;13.43;;;;;;;;;;5054984;28;20031;-75
2022/03/22 10:12:07;;;;;;;31.90;14.32;;;;;;;;;;5056071;28;20016;-76
2022/03/22 10:14:34;;;;;;;31.10;14.18;;;;;;;;;;5040688;28;20039;-73
2022/03/22 10:17:12;;;;;;;29.25;14.43;;;;;;;;;;5074411;28;20123;-79
2022/03/22 10:19:49;;;;;;;33.50;14.32;;;;;;;;;;5055721;28;20116;-76
2022/03/22 10:22:21;;;;;;;37.38;17.33;;;;;;;;;;5057609;28;20052;-75
2022/03/22 10:24:48;;;;;;;45.72;19.30;;;;;;;;;;5058642;28;20028;-74
2022/03/22 10:27:27;;;;;;;30.23;14.00;;;;;;;;;;5040724;28;20142;-76
2022/03/22 10:29:56;;;;;;;37.83;14.88;;;;;;;;;;5057674;28;20033;-75
2022/03/22 10:32:35;;;;;;;41.83;19.90;;;;;;;;;;5043585;28;20039;-76
2022/03/22 10:35:11;;;;;;;44.58;18.30;;;;;;;;;;5078120;28;20036;-74
2022/03/22 10:37:38;;;;;;;39.88;18.08;;;;;;;;;;5077828;28;20032;-73
2022/03/22 10:40:05;;;;;;;52.88;24.00;;;;;;;;;;5076126;28;20036;-76
2022/03/22 10:42:32;;;;;;;36.80;16.27;;;;;;;;;;5065302;28;20039;-78
2022/03/22 10:45:00;;;;;;;36.30;16.85;;;;;;;;;;5058490;28;20036;-77
2022/03/22 10:47:26;;;;;;;39.97;18.58;;;;;;;;;;5039441;28;20040;-75
2022/03/22 10:50:08;;;;;;;52.50;26.20;;;;;;;;;;5040384;28;20032;-78
2022/03/22 10:52:55;;;;;;;38.85;20.63;;;;;;;;;;5075498;28;20032;-77
2022/03/22 10:55:27;;;;;;;25.13;13.25;;;;;;;;;;5084300;28;20096;-75
2022/03/22 10:57:54;;;;;;;25.75;12.05;;;;;;;;;;5074754;28;20119;-75
2022/03/22 11:00:20;;;;;;;29.92;14.15;;;;;;;;;;5072277;28;20028;-75
2022/03/22 11:02:51;;;;;;;30.77;12.50;;;;;;;;;;5058210;28;20025;-74
2022/03/22 11:05:19;;;;;;;26.70;12.30;;;;;;;;;;5062084;28;20048;-75
2022/03/22 11:07:46;;;;;;;26.25;12.25;;;;;;;;;;5033047;28;20029;-75
2022/03/22 11:10:11;;;;;;;28.80;13.48;;;;;;;;;;5031888;28;20033;-75
2022/03/22 11:12:37;;;;;;;38.40;14.10;;;;;;;;;;5034461;28;20040;-75
2022/03/22 11:15:03;;;;;;;27.13;13.85;;;;;;;;;;5018682;28;20032;-75
2022/03/22 11:17:29;;;;;;;31.63;14.88;;;;;;;;;;5034772;28;20021;-75
2022/03/22 11:19:59;;;;;;;30.58;15.13;;;;;;;;;;5035896;28;20033;-76
2022/03/22 11:22:25;;;;;;;34.22;15.02;;;;;;;;;;5055644;28;20036;-75
2022/03/22 11:24:52;;;;;;;36.17;15.00;;;;;;;;;;5036236;28;20032;-76
2022/03/22 11:27:27;;;;;;;30.05;14.00;;;;;;;;;;5035192;28;20394;-76
2022/03/22 11:29:53;;;;;;;25.17;12.48;;;;;;;;;;5069912;28;20468;-74
2022/03/22 11:35:02;;;;;;;33.42;14.18;;;;;;;;;;5055452;28;20074;-77
2022/03/22 11:37:29;;;;;;;30.25;13.05;;;;;;;;;;5025362;28;20064;-76
2022/03/22 11:42:39;;;;;;;29.33;12.95;;;;;;;;;;5073191;28;20087;-78
2022/03/22 11:45:08;;;;;;;27.73;12.48;;;;;;;;;;5036564;28;20423;-76
2022/03/22 11:47:41;;;;;;;25.63;12.15;;;;;;;;;;5038914;28;20032;-76
2022/03/22 11:50:13;;;;;;;28.80;12.23;;;;;;;;;;5053816;28;20040;-77
2022/03/22 11:52:39;;;;;;;25.75;12.50;;;;;;;;;;5070889;28;20370;-77
2022/03/22 11:55:10;;;;;;;23.23;11.57;;;;;;;;;;5073106;28;20074;-77
2022/03/22 11:57:45;;;;;;;25.52;11.38;;;;;;;;;;5073187;28;20028;-77
2022/03/22 12:00:11;;;;;;;25.23;11.43;;;;;;;;;;5055808;28;20024;-76
2022/03/22 12:02:38;;;;;;;30.88;10.25;;;;;;;;;;5039270;28;20040;-76
2022/03/22 12:05:04;;;;;;;22.00;9.98;;;;;;;;;;5059114;28;20537;-76
2022/03/22 12:07:36;;;;;;;24.13;10.45;;;;;;;;;;5072859;28;20185;-77
2022/03/22 12:10:11;;;;;;;19.85;10.50;;;;;;;;;;5073248;28;20111;-79
2022/03/22 12:12:38;;;;;;;69.53;35.47;;;;;;;;;;5073233;28;20033;-80
2022/03/22 12:15:23;;;;;;;106.15;49.30;;;;;;;;;;5073541;28;20082;-82
2022/03/22 12:17:48;;;;;;;36.33;18.67;;;;;;;;;;5071403;28;20032;-78
2022/03/22 12:20:15;;;;;;;71.13;32.20;;;;;;;;;;5039972;28;20246;-80
2022/03/22 12:22:48;;;;;;;102.20;50.80;;;;;;;;;;5056564;28;20035;-80
2022/03/22 12:25:15;;;;;;;35.95;14.98;;;;;;;;;;5071402;28;20034;-83
2022/03/22 12:28:07;;;;;;;75.53;24.50;;;;;;;;;;5065124;28;20032;-80
2022/03/22 12:30:34;;;;;;;39.00;16.52;;;;;;;;;;5052005;28;20358;-78
2022/03/22 12:33:06;;;;;;;44.97;17.75;;;;;;;;;;5050789;28;20442;-77
2022/03/22 12:35:31;;;;;;;24.10;11.48;;;;;;;;;;5034788;28;20110;-79
2022/03/22 12:37:57;;;;;;;51.45;22.52;;;;;;;;;;5051701;28;20025;-78
2022/03/22 12:40:23;;;;;;;23.67;11.50;;;;;;;;;;5054887;28;20032;-78
2022/03/22 12:42:50;;;;;;;25.23;10.90;;;;;;;;;;5056676;28;20032;-78
2022/03/22 12:45:16;;;;;;;31.45;13.40;;;;;;;;;;5053289;28;20037;-79
2022/03/22 12:47:42;;;;;;;24.73;11.85;;;;;;;;;;5052848;28;20029;-79
2022/03/22 12:50:09;;;;;;;27.83;12.63;;;;;;;;;;5053039;28;20491;-78
2022/03/22 12:52:34;;;;;;;22.73;11.13;;;;;;;;;;5062155;28;20020;-79
2022/03/22 12:55:00;;;;;;;26.83;12.02;;;;;;;;;;5057009;28;20124;-80
2022/03/22 12:57:26;;;;;;;30.50;13.63;;;;;;;;;;5073205;28;20025;-79
2022/03/22 12:59:51;;;;;;;25.92;10.68;;;;;;;;;;5077380;28;20044;-78
2022/03/22 13:02:18;;;;;;;29.23;12.15;;;;;;;;;;5073028;28;20358;-79
2022/03/22 13:04:46;;;;;;;27.70;12.65;;;;;;;;;;5075387;28;20467;-79
2022/03/22 13:07:23;;;;;;;26.63;11.18;;;;;;;;;;5073664;28;20068;-80
2022/03/22 13:12:34;;;;;;;30.80;14.00;;;;;;;;;;5044561;28;20056;-80
2022/03/22 13:15:04;;;;;;;30.95;14.88;;;;;;;;;;5056407;28;20025;-81
2022/03/22 13:17:33;;;;;;;63.30;29.13;;;;;;;;;;5040701;28;20131;-80
2022/03/22 13:20:04;;;;;;;56.05;27.80;;;;;;;;;;5080102;28;20334;-77
2022/03/22 13:22:30;;;;;;;29.23;15.52;;;;;;;;;;5057881;28;20505;-79
2022/03/22 13:25:09;;;;;;;23.20;12.15;;;;;;;;;;5074562;28;20119;-79
2022/03/22 13:27:35;;;;;;;32.72;14.10;;;;;;;;;;5060607;28;20469;-79
2022/03/22 13:30:02;;;;;;;25.55;13.07;;;;;;;;;;5052678;28;20029;-77
2022/03/22 13:32:29;;;;;;;31.42;13.77;;;;;;;;;;5034137;28;20486;-78
2022/03/22 13:35:03;;;;;;;31.05;14.30;;;;;;;;;;5039889;28;20489;-79
2022/03/22 13:37:29;;;;;;;24.58;11.60;;;;;;;;;;5057399;28;20029;-77
2022/03/22 13:40:08;;;;;;;24.17;10.88;;;;;;;;;;5060224;28;20025;-76
2022/03/22 13:42:33;;;;;;;28.02;11.00;;;;;;;;;;5039804;28;20033;-77
2022/03/22 13:45:00;;;;;;;25.05;12.02;;;;;;;;;;5037793;28;20120;-77
2022/03/22 13:47:30;;;;;;;23.02;11.02;;;;;;;;;;5038009;28;20387;-77
2022/03/22 13:50:16;;;;;;;30.80;14.48;;;;;;;;;;5037929;28;20523;-78
2022/03/22 13:52:43;;;;;;;23.45;11.98;;;;;;;;;;5041126;28;20434;-75
2022/03/22 13:55:18;;;;;;;24.40;11.20;;;;;;;;;;5021740;28;20178;-78
2022/03/22 13:57:47;;;;;;;32.20;14.85;;;;;;;;;;5038599;28;20040;-77
2022/03/22 14:00:13;;;;;;;37.30;17.98;;;;;;;;;;5042199;28;20442;-77
2022/03/22 14:02:38;;;;;;;29.35;12.25;;;;;;;;;;5023541;28;20050;-77
2022/03/22 14:05:04;;;;;;;27.05;11.52;;;;;;;;;;5056590;28;20049;-76
2022/03/22 14:07:30;;;;;;;21.92;11.82;;;;;;;;;;5056603;28;20037;-77
2022/03/22 14:09:55;;;;;;;20.08;10.75;;;;;;;;;;5022229;28;20048;-75
2022/03/22 14:12:21;;;;;;;31.17;15.13;;;;;;;;;;5055227;28;20033;-76
2022/03/22 14:14:46;;;;;;;27.48;13.23;;;;;;;;;;5056291;28;20420;-75
2022/03/22 14:17:12;;;;;;;27.55;11.55;;;;;;;;;;5056596;28;20044;-75
2022/03/22 14:19:37;;;;;;;24.05;11.75;;;;;;;;;;5056616;28;20036;-75
2022/03/22 14:22:03;;;;;;;25.05;11.45;;;;;;;;;;5056678;28;20033;-77
2022/03/22 14:24:30;;;;;;;18.65;10.73;;;;;;;;;;5056453;28;20370;-78
2022/03/22 14:26:57;;;;;;;26.20;11.30;;;;;;;;;;5057184;28;20335;-78
2022/03/22 14:29:22;;;;;;;58.53;25.58;;;;;;;;;;5038479;28;20413;-79
2022/03/22 14:31:48;;;;;;;25.58;11.80;;;;;;;;;;5056438;28;20029;-76
2022/03/22 14:35:46;;;;;;;51.03;24.70;;;;;;;;;;5038795;28;20043;-77
2022/03/22 14:36:59;;;;;;;26.58;11.45;;;;;;;;;;5041551;28;20036;-78
2022/03/22 14:39:24;;;;;;;24.60;11.07;;;;;;;;;;5038729;28;20029;-78
2022/03/22 14:41:50;;;;;;;31.98;12.07;;;;;;;;;;5064239;28;20115;-78
2022/03/22 14:44:16;;;;;;;30.92;10.70;;;;;;;;;;5055787;28;20052;-79
2022/03/22 14:46:42;;;;;;;31.55;14.55;;;;;;;;;;5021826;28;20118;-78
2022/03/22 14:49:07;;;;;;;26.85;12.98;;;;;;;;;;5038481;28;20186;-78
2022/03/22 14:54:17;;;;;;;38.05;18.02;;;;;;;;;;5040876;28;20036;-79
2022/03/22 14:59:26;;;;;;;39.97;18.73;;;;;;;;;;5056166;28;20040;-79